createdAt,value
2019-04-28T00:00:06.767Z,34.20
2019-04-28T00:02:34.173Z,30.93
2019-04-28T00:05:01.649Z,32.47
2019-04-28T00:07:29.087Z,42.10
2019-04-28T00:09:56.612Z,31.63
2019-04-28T00:12:23.996Z,35.47
2019-04-28T00:14:51.699Z,42.30
2019-04-28T00:17:21.048Z,42.47
2019-04-28T00:19:48.561Z,34.63
2019-04-28T00:22:22.055Z,28.07
2019-04-28T00:24:56.616Z,28.97
2019-04-28T00:27:24.174Z,27.67
2019-04-28T00:29:51.996Z,24.93
2019-04-28T00:32:21.004Z,30.10
2019-04-28T00:34:48.576Z,24.80
2019-04-28T00:37:33.541Z,20.67
2019-04-28T00:40:01.583Z,22.27
2019-04-28T00:42:29.172Z,13.37
2019-04-28T00:44:56.692Z,19.10
2019-04-28T00:47:24.583Z,19.43
2019-04-28T00:49:52.121Z,18.53
2019-04-28T00:52:21.962Z,17.63
2019-04-28T00:54:50.077Z,18.13
2019-04-28T00:57:18.149Z,14.03
2019-04-28T00:59:56.878Z,20.57
2019-04-28T01:02:23.540Z,12.07
2019-04-28T01:04:51.500Z,14.37
2019-04-28T01:07:21.138Z,8.80
2019-04-28T01:09:48.465Z,10.60
2019-04-28T01:12:16.061Z,13.93
2019-04-28T01:14:43.632Z,13.93
2019-04-28T01:17:17.196Z,11.63
2019-04-28T01:19:49.862Z,13.47
2019-04-28T01:22:20.169Z,12.10
2019-04-28T01:24:49.603Z,12.50
2019-04-28T01:27:40.269Z,14.67
2019-04-28T01:30:14.533Z,15.10
2019-04-28T01:32:47.605Z,13.93
2019-04-28T01:35:15.365Z,12.30
2019-04-28T01:37:42.758Z,12.90
2019-04-28T01:40:10.416Z,12.23
2019-04-28T01:42:37.889Z,7.80
2019-04-28T01:45:05.671Z,10.93
2019-04-28T01:47:33.092Z,7.37
2019-04-28T01:50:02.041Z,5.63
2019-04-28T01:52:30.275Z,7.23
2019-04-28T01:54:57.895Z,8.00
2019-04-28T01:57:25.288Z,6.50
2019-04-28T01:59:52.727Z,3.87
2019-04-28T02:02:20.255Z,5.03
2019-04-28T02:04:47.637Z,5.23
2019-04-28T02:07:15.073Z,5.93
2019-04-28T02:09:42.512Z,3.30
2019-04-28T02:12:10.568Z,2.93
2019-04-28T02:14:38.134Z,5.57
2019-04-28T02:17:05.780Z,4.57
2019-04-28T02:19:33.271Z,3.50
2019-04-28T02:22:11.835Z,4.93
2019-04-28T02:24:40.524Z,5.23
2019-04-28T02:27:10.404Z,4.83
2019-04-28T02:29:37.732Z,4.50
2019-04-28T02:32:07.070Z,5.40
2019-04-28T02:34:34.527Z,4.87
2019-04-28T02:37:02.275Z,3.37
2019-04-28T02:39:31.296Z,4.80
2019-04-28T02:42:01.434Z,3.73
2019-04-28T02:44:31.837Z,3.57
2019-04-28T02:47:00.665Z,2.17
2019-04-28T02:49:46.856Z,5.53
2019-04-28T02:52:21.903Z,4.67
2019-04-28T02:54:50.759Z,4.70
2019-04-28T02:57:20.840Z,4.67
2019-04-28T02:59:50.567Z,3.40
2019-04-28T03:02:17.098Z,3.63
2019-04-28T03:04:44.932Z,3.43
2019-04-28T03:07:14.624Z,3.23
2019-04-28T03:09:41.846Z,3.53
2019-04-28T03:12:11.304Z,4.83
2019-04-28T03:14:43.346Z,4.63
2019-04-28T03:17:10.722Z,5.73
2019-04-28T03:19:37.539Z,5.67
2019-04-28T03:22:05.042Z,5.50
2019-04-28T03:24:32.576Z,3.60
2019-04-28T03:27:20.493Z,4.90
2019-04-28T03:29:52.718Z,4.07
2019-04-28T03:32:39.738Z,8.47
2019-04-28T03:34:56.274Z,5.53
2019-04-28T03:37:24.327Z,5.87
2019-04-28T03:39:52.329Z,4.00
2019-04-28T03:42:21.530Z,3.67
2019-04-28T03:44:51.075Z,5.03
2019-04-28T03:47:21.218Z,4.40
2019-04-28T03:49:50.494Z,3.50
2019-04-28T03:52:20.984Z,5.77
2019-04-28T03:54:50.951Z,7.33
2019-04-28T03:57:21.192Z,4.93
2019-04-28T03:59:50.846Z,4.17
2019-04-28T04:02:17.553Z,4.07
2019-04-28T04:04:45.399Z,8.43
2019-04-28T04:07:12.777Z,3.60
2019-04-28T04:10:11.197Z,4.27
2019-04-28T04:12:54.609Z,4.03
2019-04-28T04:15:49.203Z,4.77
2019-04-28T04:18:21.018Z,3.40
2019-04-28T04:20:51.007Z,6.13
2019-04-28T04:23:17.839Z,4.33
2019-04-28T04:25:46.757Z,5.83
2019-04-28T04:28:14.187Z,5.03
2019-04-28T04:30:41.717Z,8.03
2019-04-28T04:33:11.100Z,5.10
2019-04-28T04:35:41.181Z,6.73
2019-04-28T04:38:10.416Z,7.43
2019-04-28T04:40:37.333Z,7.97
2019-04-28T04:43:04.755Z,6.33
2019-04-28T04:45:32.239Z,7.30
2019-04-28T04:48:00.661Z,7.27
2019-04-28T04:50:31.067Z,6.30
2019-04-28T04:52:57.806Z,8.73
2019-04-28T04:55:26.268Z,6.53
2019-04-28T04:57:53.704Z,5.37
2019-04-28T05:00:40.418Z,7.80
2019-04-28T05:03:15.574Z,7.13
2019-04-28T05:05:43.107Z,6.70
2019-04-28T05:08:15.370Z,5.27
2019-04-28T05:10:40.407Z,5.97
2019-04-28T05:13:10.100Z,6.17
2019-04-28T05:15:37.542Z,6.37
2019-04-28T05:18:05.033Z,6.67
2019-04-28T05:20:32.611Z,4.57
2019-04-28T05:23:06.852Z,4.03
2019-04-28T05:25:40.404Z,6.93
2019-04-28T05:28:07.910Z,5.67
2019-04-28T05:30:39.690Z,4.13
2019-04-28T05:33:05.076Z,3.40
2019-04-28T05:35:35.557Z,6.97
2019-04-28T05:38:02.315Z,3.77
2019-04-28T05:40:29.853Z,3.63
2019-04-28T05:43:01.103Z,4.23
2019-04-28T05:45:32.201Z,3.80
2019-04-28T05:48:01.585Z,1.63
2019-04-28T05:50:43.605Z,1.90
2019-04-28T05:53:17.419Z,1.37
2019-04-28T05:55:53.555Z,2.07
2019-04-28T05:58:40.175Z,4.20
2019-04-28T06:01:21.685Z,4.73
2019-04-28T06:03:49.659Z,1.20
2019-04-28T06:06:20.352Z,1.37
2019-04-28T06:09:20.328Z,5.00
2019-04-28T06:11:49.520Z,2.53
2019-04-28T06:14:17.093Z,3.17
2019-04-28T06:16:44.574Z,1.10
2019-04-28T06:19:12.075Z,1.20
2019-04-28T06:21:39.734Z,1.20
2019-04-28T06:24:07.239Z,1.80
2019-04-28T06:26:34.929Z,2.97
2019-04-28T06:29:02.429Z,1.30
2019-04-28T06:31:29.997Z,2.83
2019-04-28T06:33:57.656Z,3.17
2019-04-28T06:36:25.481Z,1.20
2019-04-28T06:38:53.097Z,1.67
2019-04-28T06:41:20.507Z,1.23
2019-04-28T06:43:48.148Z,3.33
2019-04-28T06:46:15.646Z,1.63
2019-04-28T06:48:43.197Z,1.60
2019-04-28T06:51:10.558Z,1.93
2019-04-28T06:53:38.033Z,8.60
2019-04-28T06:56:05.491Z,2.70
2019-04-28T06:58:32.982Z,2.67
2019-04-28T07:01:00.618Z,1.37
2019-04-28T07:03:28.101Z,1.67
2019-04-28T07:05:55.580Z,1.23
2019-04-28T07:08:23.106Z,1.23
2019-04-28T07:10:50.654Z,1.30
2019-04-28T07:13:20.594Z,0.90
2019-04-28T07:15:47.730Z,2.40
2019-04-28T07:18:15.225Z,1.23
2019-04-28T07:20:49.789Z,2.27
2019-04-28T07:23:17.297Z,4.30
2019-04-28T07:25:44.912Z,1.20
2019-04-28T07:28:12.490Z,2.33
2019-04-28T07:30:41.197Z,2.90
2019-04-28T07:33:09.020Z,1.50
2019-04-28T07:35:36.399Z,2.30
2019-04-28T07:38:04.275Z,0.70
2019-04-28T07:40:31.764Z,1.17
2019-04-28T07:42:59.182Z,2.23
2019-04-28T07:45:26.673Z,2.40
2019-04-28T07:47:54.139Z,6.90
2019-04-28T07:50:21.696Z,1.03
2019-04-28T07:52:54.627Z,1.37
2019-04-28T07:55:22.207Z,2.10
2019-04-28T07:57:50.023Z,2.17
2019-04-28T08:00:23.495Z,1.10
2019-04-28T08:02:50.979Z,2.47
2019-04-28T08:05:18.409Z,2.13
2019-04-28T08:07:45.946Z,1.10
2019-04-28T08:10:13.701Z,0.90
2019-04-28T08:12:41.161Z,1.73
2019-04-28T08:15:08.777Z,1.13
2019-04-28T08:17:36.601Z,1.93
2019-04-28T08:20:05.907Z,2.10
2019-04-28T08:22:33.431Z,1.17
2019-04-28T08:25:01.745Z,3.13
2019-04-28T08:27:29.184Z,1.63
2019-04-28T08:29:58.663Z,0.87
2019-04-28T08:32:51.650Z,2.20
2019-04-28T08:35:19.264Z,3.77
2019-04-28T08:37:46.809Z,2.43
2019-04-28T08:40:14.540Z,0.70
2019-04-28T08:42:42.143Z,2.80
2019-04-28T08:45:09.774Z,0.70
2019-04-28T08:47:37.367Z,3.40
2019-04-28T08:50:05.362Z,0.80
2019-04-28T08:52:32.899Z,0.90
2019-04-28T08:55:00.391Z,2.20
2019-04-28T08:57:27.904Z,0.73
2019-04-28T08:59:55.353Z,1.67
2019-04-28T09:02:23.112Z,1.13
2019-04-28T09:04:50.629Z,0.80
2019-04-28T09:07:18.130Z,1.37
2019-04-28T09:09:45.628Z,1.43
2019-04-28T09:12:13.130Z,3.40
2019-04-28T09:14:40.607Z,0.93
2019-04-28T09:17:08.056Z,1.33
2019-04-28T09:19:35.673Z,1.83
2019-04-28T09:22:03.838Z,6.13
2019-04-28T09:24:31.302Z,2.23
2019-04-28T09:26:59.339Z,0.97
2019-04-28T09:29:26.942Z,1.90
2019-04-28T09:31:54.435Z,1.50
2019-04-28T09:34:28.190Z,1.50
2019-04-28T09:36:52.470Z,1.80
2019-04-28T09:39:41.329Z,2.87
2019-04-28T09:42:27.169Z,1.00
2019-04-28T09:44:54.666Z,1.23
2019-04-28T09:47:22.225Z,1.07
2019-04-28T09:49:49.607Z,1.40
2019-04-28T09:52:17.108Z,3.53
2019-04-28T09:54:44.704Z,2.03
2019-04-28T09:57:12.200Z,1.10
2019-04-28T09:59:39.706Z,0.80
2019-04-28T10:02:07.396Z,2.37
2019-04-28T10:04:41.441Z,0.77
2019-04-28T10:07:04.456Z,1.20
2019-04-28T10:09:31.902Z,1.20
2019-04-28T10:11:59.394Z,1.57
2019-04-28T10:14:26.879Z,1.43
2019-04-28T10:16:54.388Z,2.00
2019-04-28T10:19:21.842Z,0.60
2019-04-28T10:21:49.392Z,1.30
2019-04-28T10:24:16.943Z,2.83
2019-04-28T10:26:44.531Z,2.00
2019-04-28T10:29:12.078Z,2.13
2019-04-28T10:31:39.487Z,1.23
2019-04-28T10:34:07.053Z,1.23
2019-04-28T10:36:35.556Z,0.60
2019-04-28T10:39:26.648Z,0.83
2019-04-28T10:41:54.123Z,1.27
2019-04-28T10:44:22.310Z,1.70
2019-04-28T10:46:51.177Z,1.67
2019-04-28T10:49:19.445Z,2.40
2019-04-28T10:51:58.806Z,1.03
2019-04-28T10:54:16.238Z,0.90
2019-04-28T10:56:43.725Z,1.33
2019-04-28T10:59:11.489Z,1.73
2019-04-28T11:01:38.948Z,1.33
2019-04-28T11:04:09.586Z,0.50
2019-04-28T11:06:37.197Z,0.90
2019-04-28T11:09:30.043Z,0.90
2019-04-28T11:11:48.819Z,1.03
2019-04-28T11:14:16.415Z,3.83
2019-04-28T11:16:43.919Z,1.07
2019-04-28T11:19:11.602Z,0.90
2019-04-28T11:21:39.060Z,1.33
2019-04-28T11:24:06.521Z,0.87
2019-04-28T11:26:34.541Z,1.10
2019-04-28T11:29:02.013Z,2.10
2019-04-28T11:31:29.471Z,0.80
2019-04-28T11:34:22.408Z,0.70
2019-04-28T11:36:49.889Z,1.53
2019-04-28T11:39:23.121Z,1.47
2019-04-28T11:41:50.650Z,1.00
2019-04-28T11:44:18.187Z,1.57
2019-04-28T11:46:45.823Z,0.80
2019-04-28T11:49:13.216Z,1.10
2019-04-28T11:51:40.668Z,0.93
2019-04-28T11:54:08.190Z,2.60
2019-04-28T11:56:41.548Z,0.83
2019-04-28T11:59:05.129Z,1.50
2019-04-28T12:01:32.674Z,2.60
2019-04-28T12:04:02.458Z,0.73
2019-04-28T12:06:29.991Z,2.00
2019-04-28T12:09:03.047Z,1.17
2019-04-28T12:11:33.609Z,1.77
2019-04-28T12:14:14.567Z,1.33
2019-04-28T12:17:04.137Z,0.80
2019-04-28T12:19:44.386Z,2.57
2019-04-28T12:22:11.875Z,3.30
2019-04-28T12:24:39.347Z,1.93
2019-04-28T12:27:06.883Z,1.57
2019-04-28T12:29:34.357Z,0.80
2019-04-28T12:32:01.822Z,1.17
2019-04-28T12:34:29.331Z,1.17
2019-04-28T12:36:56.817Z,0.67
2019-04-28T12:39:24.326Z,2.47
2019-04-28T12:41:51.946Z,1.23
2019-04-28T12:44:19.404Z,3.50
2019-04-28T12:46:46.864Z,1.10
2019-04-28T12:49:23.352Z,0.70
2019-04-28T12:51:50.912Z,1.03
2019-04-28T12:54:20.339Z,1.17
2019-04-28T12:56:47.854Z,1.07
2019-04-28T12:59:20.823Z,1.07
2019-04-28T13:02:13.299Z,1.47
2019-04-28T13:04:50.352Z,0.80
2019-04-28T13:07:17.818Z,0.70
2019-04-28T13:09:45.288Z,1.60
2019-04-28T13:12:12.710Z,0.93
2019-04-28T13:14:40.215Z,2.27
2019-04-28T13:17:07.794Z,1.47
2019-04-28T13:19:35.305Z,2.33
2019-04-28T13:22:05.436Z,1.77
2019-04-28T13:24:32.421Z,2.20
2019-04-28T13:27:00.428Z,1.40
2019-04-28T13:29:27.882Z,2.00
2019-04-28T13:31:55.379Z,1.33
2019-04-28T13:34:24.788Z,3.13
2019-04-28T13:36:52.202Z,0.43
2019-04-28T13:39:31.350Z,1.80
2019-04-28T13:41:59.212Z,0.87
2019-04-28T13:44:45.155Z,1.13
2019-04-28T13:47:12.649Z,1.10
2019-04-28T13:50:05.925Z,0.60
2019-04-28T13:52:33.429Z,0.83
2019-04-28T13:55:20.518Z,1.83
2019-04-28T13:57:48.013Z,0.83
2019-04-28T14:00:19.075Z,1.30
2019-04-28T14:02:54.231Z,1.10
2019-04-28T14:05:53.312Z,1.90
2019-04-28T14:08:20.777Z,1.97
2019-04-28T14:10:48.254Z,1.07
2019-04-28T14:13:15.837Z,0.77
2019-04-28T14:15:43.457Z,0.70
2019-04-28T14:18:10.986Z,0.67
2019-04-28T14:20:38.615Z,1.03
2019-04-28T14:23:06.107Z,1.47
2019-04-28T14:25:33.559Z,1.07
2019-04-28T14:28:01.590Z,1.37
2019-04-28T14:30:29.090Z,0.80
2019-04-28T14:32:56.532Z,1.93
2019-04-28T14:35:24.114Z,1.07
2019-04-28T14:37:51.748Z,1.03
2019-04-28T14:40:19.186Z,1.13
2019-04-28T14:42:46.740Z,1.50
2019-04-28T14:45:15.207Z,0.87
2019-04-28T14:47:42.699Z,1.13
2019-04-28T14:50:10.517Z,3.97
2019-04-28T14:52:37.974Z,1.73
2019-04-28T14:55:05.810Z,1.13
2019-04-28T14:57:33.314Z,0.60
2019-04-28T15:00:00.870Z,1.10
2019-04-28T15:02:44.914Z,2.70
2019-04-28T15:05:34.659Z,0.83
2019-04-28T15:08:22.141Z,2.30
2019-04-28T15:10:57.921Z,2.60
2019-04-28T15:13:26.350Z,2.73
2019-04-28T15:15:54.166Z,3.23
2019-04-28T15:18:21.684Z,1.90
2019-04-28T15:20:49.212Z,0.53
2019-04-28T15:23:16.702Z,1.10
2019-04-28T15:25:44.202Z,1.37
2019-04-28T15:28:11.707Z,0.80
2019-04-28T15:30:39.146Z,2.13
2019-04-28T15:33:06.663Z,1.33
2019-04-28T15:35:34.138Z,2.03
2019-04-28T15:38:01.798Z,1.53
2019-04-28T15:40:29.309Z,1.73
2019-04-28T15:42:56.725Z,1.67
2019-04-28T15:45:24.191Z,1.27
2019-04-28T15:47:51.710Z,1.93
2019-04-28T15:50:19.962Z,1.60
2019-04-28T15:52:47.444Z,3.03
2019-04-28T15:55:18.666Z,1.83
2019-04-28T15:57:46.134Z,4.70
2019-04-28T16:00:14.783Z,1.80
2019-04-28T16:02:42.282Z,4.77
2019-04-28T16:05:10.026Z,2.13
2019-04-28T16:07:37.510Z,5.50
2019-04-28T16:10:05.360Z,2.37
2019-04-28T16:12:32.742Z,3.67
2019-04-28T16:15:00.202Z,2.10
2019-04-28T16:17:27.707Z,1.27
2019-04-28T16:19:55.180Z,1.60
2019-04-28T16:22:22.693Z,1.43
2019-04-28T16:24:50.204Z,3.47
2019-04-28T16:27:17.863Z,2.17
2019-04-28T16:29:45.299Z,1.80
2019-04-28T16:32:12.768Z,2.43
2019-04-28T16:34:40.373Z,2.57
2019-04-28T16:37:10.732Z,1.50
2019-04-28T16:39:38.292Z,1.90
2019-04-28T16:42:07.441Z,1.93
2019-04-28T16:44:38.902Z,1.40
2019-04-28T16:47:06.470Z,3.97
2019-04-28T16:49:34.006Z,1.03
2019-04-28T16:52:01.747Z,1.60
2019-04-28T16:54:29.204Z,1.83
2019-04-28T16:57:04.862Z,1.77
2019-04-28T16:59:51.730Z,2.60
2019-04-28T17:02:28.298Z,2.17
2019-04-28T17:04:55.818Z,1.93
2019-04-28T17:07:23.304Z,1.40
2019-04-28T17:09:51.239Z,3.03
2019-04-28T17:12:18.820Z,1.30
2019-04-28T17:14:46.329Z,3.67
2019-04-28T17:17:13.859Z,1.57
2019-04-28T17:19:41.425Z,6.60
2019-04-28T17:22:08.817Z,3.57
2019-04-28T17:24:36.405Z,3.17
2019-04-28T17:27:05.575Z,1.87
2019-04-28T17:29:33.265Z,2.67
2019-04-28T17:32:02.129Z,3.57
2019-04-28T17:34:29.576Z,4.90
2019-04-28T17:36:57.028Z,5.83
2019-04-28T17:39:25.228Z,3.00
2019-04-28T17:41:52.741Z,6.37
2019-04-28T17:44:20.374Z,6.93
2019-04-28T17:46:47.909Z,3.53
2019-04-28T17:49:15.840Z,2.07
2019-04-28T17:51:43.461Z,3.93
2019-04-28T17:54:11.074Z,4.03
2019-04-28T17:56:38.580Z,2.90
2019-04-28T17:59:06.709Z,4.60
2019-04-28T18:01:52.297Z,5.13
2019-04-28T18:04:54.302Z,6.00
2019-04-28T18:07:28.836Z,3.33
2019-04-28T18:09:56.318Z,4.43
2019-04-28T18:12:23.693Z,2.93
2019-04-28T18:14:53.141Z,4.73
2019-04-28T18:17:49.057Z,4.00
2019-04-28T18:20:16.756Z,3.10
2019-04-28T18:22:44.233Z,7.10
2019-04-28T18:25:11.893Z,7.87
2019-04-28T18:27:39.794Z,5.57
2019-04-28T18:30:08.054Z,7.07
2019-04-28T18:32:55.653Z,4.67
2019-04-28T18:35:36.926Z,3.43
2019-04-28T18:38:11.409Z,2.90
2019-04-28T18:40:57.850Z,3.57
2019-04-28T18:43:44.830Z,3.13
2019-04-28T18:46:12.989Z,4.30
2019-04-28T18:48:40.520Z,3.93
2019-04-28T18:51:08.022Z,6.83
2019-04-28T18:53:35.479Z,3.73
2019-04-28T18:56:03.165Z,6.07
2019-04-28T18:58:30.711Z,7.43
2019-04-28T19:01:15.427Z,5.50
2019-04-28T19:03:42.918Z,4.63
2019-04-28T19:06:10.435Z,8.73
2019-04-28T19:08:49.267Z,4.80
2019-04-28T19:11:39.292Z,5.23
2019-04-28T19:14:18.249Z,14.63
2019-04-28T19:17:20.450Z,5.53
2019-04-28T19:19:47.996Z,5.83
2019-04-28T19:22:15.570Z,14.10
2019-04-28T19:24:43.029Z,7.77
2019-04-28T19:27:10.512Z,8.80
2019-04-28T19:29:38.097Z,9.40
2019-04-28T19:32:07.106Z,6.27
2019-04-28T19:34:34.661Z,14.77
2019-04-28T19:37:02.342Z,11.67
2019-04-28T19:39:29.779Z,8.77
2019-04-28T19:41:57.327Z,7.37
2019-04-28T19:44:24.806Z,5.67
2019-04-28T19:46:52.289Z,5.53
2019-04-28T19:49:19.709Z,5.00
2019-04-28T19:51:47.287Z,5.97
2019-04-28T19:54:16.361Z,4.70
2019-04-28T19:57:02.185Z,7.53
2019-04-28T19:59:47.962Z,6.40
2019-04-28T20:02:15.607Z,4.13
2019-04-28T20:04:43.111Z,3.07
2019-04-28T20:07:10.670Z,3.50
2019-04-28T20:09:38.255Z,3.60
2019-04-28T20:12:05.760Z,3.80
2019-04-28T20:14:33.192Z,5.03
2019-04-28T20:17:00.623Z,3.20
2019-04-28T20:19:28.127Z,6.60
2019-04-28T20:21:55.493Z,6.23
2019-04-28T20:24:22.987Z,6.13
2019-04-28T20:26:50.471Z,2.60
2019-04-28T20:29:19.660Z,4.30
2019-04-28T20:31:47.140Z,4.17
2019-04-28T20:34:14.615Z,2.43
2019-04-28T20:36:51.435Z,3.03
2019-04-28T20:39:30.033Z,4.80
2019-04-28T20:42:17.020Z,4.53
2019-04-28T20:44:44.569Z,5.83
2019-04-28T20:47:12.053Z,3.83
2019-04-28T20:49:39.537Z,2.63
2019-04-28T20:52:07.034Z,5.90
2019-04-28T20:54:34.547Z,2.83
2019-04-28T20:57:02.171Z,2.50
2019-04-28T20:59:29.718Z,2.53
2019-04-28T21:01:57.170Z,6.20
2019-04-28T21:04:24.678Z,4.40
2019-04-28T21:06:52.152Z,2.70
2019-04-28T21:09:19.570Z,3.83
2019-04-28T21:11:47.065Z,2.70
2019-04-28T21:14:14.570Z,3.80
2019-04-28T21:16:42.012Z,4.73
2019-04-28T21:19:09.520Z,3.57
2019-04-28T21:21:37.006Z,3.23
2019-04-28T21:24:04.416Z,2.37
2019-04-28T21:26:31.900Z,2.40
2019-04-28T21:28:59.494Z,2.37
2019-04-28T21:31:27.028Z,2.70
2019-04-28T21:33:54.546Z,4.80
2019-04-28T21:36:22.015Z,2.10
2019-04-28T21:38:50.457Z,2.27
2019-04-28T21:41:17.959Z,1.97
2019-04-28T21:44:07.729Z,2.57
2019-04-28T21:47:03.738Z,2.67
2019-04-28T21:49:33.317Z,2.70
2019-04-28T21:52:01.037Z,2.40
2019-04-28T21:54:28.526Z,4.13
2019-04-28T21:56:55.985Z,2.27
2019-04-28T21:59:23.491Z,2.93
2019-04-28T22:01:51.075Z,4.17
2019-04-28T22:04:18.639Z,3.40
2019-04-28T22:06:46.250Z,1.50
2019-04-28T22:09:14.242Z,4.57
2019-04-28T22:11:41.643Z,2.10
2019-04-28T22:14:09.156Z,2.47
2019-04-28T22:16:36.647Z,2.27
2019-04-28T22:19:04.385Z,1.93
2019-04-28T22:21:31.904Z,1.97
2019-04-28T22:24:05.984Z,1.93
2019-04-28T22:26:44.004Z,1.43
2019-04-28T22:29:11.513Z,2.73
2019-04-28T22:31:39.099Z,2.27
2019-04-28T22:34:06.535Z,2.20
2019-04-28T22:36:34.129Z,2.30
2019-04-28T22:39:01.627Z,3.33
2019-04-28T22:41:29.032Z,1.93
2019-04-28T22:43:56.602Z,1.90
2019-04-28T22:46:24.119Z,2.23
2019-04-28T22:48:52.797Z,2.57
2019-04-28T22:51:20.341Z,2.30
2019-04-28T22:53:47.811Z,3.40
2019-04-28T22:56:37.423Z,3.47
2019-04-28T22:59:24.780Z,2.33
2019-04-28T23:02:17.774Z,2.73
2019-04-28T23:04:59.274Z,3.33
2019-04-28T23:07:26.881Z,3.17
2019-04-28T23:09:54.463Z,2.63
2019-04-28T23:12:22.159Z,2.60
2019-04-28T23:14:50.027Z,2.30
2019-04-28T23:17:19.083Z,2.27
2019-04-28T23:19:46.532Z,2.27
2019-04-28T23:22:23.322Z,2.43
2019-04-28T23:24:50.831Z,1.60
2019-04-28T23:27:18.342Z,2.63
2019-04-28T23:29:45.809Z,2.30
2019-04-28T23:32:13.975Z,2.60
2019-04-28T23:34:41.477Z,2.47
2019-04-28T23:37:09.123Z,4.37
2019-04-28T23:39:36.573Z,1.70
2019-04-28T23:42:09.590Z,3.30
2019-04-28T23:44:37.207Z,1.97
2019-04-28T23:47:06.682Z,2.77
2019-04-28T23:49:34.196Z,4.33
2019-04-28T23:52:33.128Z,2.30
2019-04-28T23:55:02.635Z,3.00
2019-04-28T23:57:30.064Z,1.80
2019-04-28T23:59:57.523Z,2.93
